Time,TemperatureF,DewpointF,PressureIn,WindDirection,WindDirectionDegrees,WindSpeedMPH,WindSpeedGustMPH,Humidity,HourlyPrecipIn,Conditions,Clouds,dailyrainin,SolarRadiationWatts/m^2,SoftwareType,DateUTC
2013-03-05 00:02:00,45.0,44.0,-100.00,North,7,2.0,3.0,95,0.00,,,0.00,0.000000,,2013-03-05 05:02:00,
2013-03-05 00:12:00,45.0,44.0,-100.00,North,7,2.0,3.0,95,0.00,,,0.00,0.000000,,2013-03-05 05:12:00,
2013-03-05 00:32:00,43.0,42.0,-100.00,ENE,59,0.0,4.0,95,0.00,,,0.00,0.000000,,2013-03-05 05:32:00,
2013-03-05 00:42:00,43.0,42.0,-100.00,ENE,59,0.0,4.0,95,0.00,,,0.00,0.000000,,2013-03-05 05:42:00,
2013-03-05 00:52:00,43.0,42.0,-100.00,ENE,59,0.0,4.0,95,0.00,,,0.00,0.000000,,2013-03-05 05:52:00,
2013-03-05 01:01:00,43.0,42.0,-100.00,ENE,59,0.0,4.0,95,0.00,,,0.00,0.000000,,2013-03-05 06:01:00,
2013-03-05 01:11:00,43.0,42.0,-100.00,ENE,59,0.0,4.0,95,0.00,,,0.00,0.000000,,2013-03-05 06:11:00,
2013-03-05 01:32:00,41.0,40.0,-100.00,ENE,66,0.0,2.0,95,0.00,,,0.00,0.000000,,2013-03-05 06:32:00,
2013-03-05 01:42:00,41.0,40.0,-100.00,ENE,66,0.0,2.0,95,0.00,,,0.00,0.000000,,2013-03-05 06:42:00,
2013-03-05 01:52:00,41.0,40.0,-100.00,ENE,66,0.0,2.0,95,0.00,,,0.00,0.000000,,2013-03-05 06:52:00,
2013-03-05 02:01:00,41.0,40.0,-100.00,ENE,66,0.0,2.0,95,0.00,,,0.00,0.000000,,2013-03-05 07:01:00,
2013-03-05 02:11:00,41.0,40.0,-100.00,ENE,66,0.0,2.0,95,0.00,,,0.00,0.000000,,2013-03-05 07:11:00,
2013-03-05 02:32:00,41.0,40.0,-100.00,ESE,116,0.0,0.0,96,0.00,,,0.00,0.000000,,2013-03-05 07:32:00,
2013-03-05 02:42:00,41.0,40.0,-100.00,ESE,116,0.0,0.0,96,0.00,,,0.00,0.000000,,2013-03-05 07:42:00,
2013-03-05 02:52:00,41.0,40.0,-100.00,ESE,116,0.0,0.0,96,0.00,,,0.00,0.000000,,2013-03-05 07:52:00,
2013-03-05 03:02:00,41.0,40.0,-100.00,ESE,116,0.0,0.0,96,0.00,,,0.00,0.000000,,2013-03-05 08:02:00,
2013-03-05 03:11:00,41.0,40.0,-100.00,ESE,116,0.0,0.0,96,0.00,,,0.00,0.000000,,2013-03-05 08:11:00,
2013-03-05 03:42:00,40.0,39.0,-100.00,NE,48,0.0,0.0,96,0.00,,,0.00,0.000000,,2013-03-05 08:42:00,
2013-03-05 03:52:00,40.0,39.0,-100.00,NE,48,0.0,0.0,96,0.00,,,0.00,0.000000,,2013-03-05 08:52:00,
2013-03-05 04:01:00,40.0,39.0,-100.00,NE,48,0.0,0.0,96,0.00,,,0.00,0.000000,,2013-03-05 09:01:00,
2013-03-05 04:11:00,40.0,39.0,-100.00,NE,48,0.0,0.0,96,0.00,,,0.00,0.000000,,2013-03-05 09:11:00,
2013-03-05 04:32:00,40.0,39.0,-100.00,SE,127,0.0,2.0,96,0.00,,,0.00,0.000000,,2013-03-05 09:32:00,
2013-03-05 04:43:00,40.0,39.0,-100.00,SE,127,0.0,2.0,96,0.00,,,0.00,0.000000,,2013-03-05 09:43:00,
2013-03-05 04:52:00,40.0,39.0,-100.00,SE,127,0.0,2.0,96,0.00,,,0.00,0.000000,,2013-03-05 09:52:00,
2013-03-05 05:01:00,40.0,39.0,-100.00,SE,127,0.0,2.0,96,0.00,,,0.00,0.000000,,2013-03-05 10:01:00,
2013-03-05 05:11:00,40.0,39.0,-100.00,SE,127,0.0,2.0,96,0.00,,,0.00,0.000000,,2013-03-05 10:11:00,
2013-03-05 05:42:00,40.0,39.0,-100.00,ENE,71,0.0,0.0,96,0.00,,,0.00,0.000000,,2013-03-05 10:42:00,
2013-03-05 05:52:00,40.0,39.0,-100.00,ENE,71,0.0,0.0,96,0.00,,,0.00,0.000000,,2013-03-05 10:52:00,
2013-03-05 06:02:00,40.0,39.0,-100.00,ENE,71,0.0,0.0,96,0.00,,,0.00,0.000000,,2013-03-05 11:02:00,
2013-03-05 06:11:00,40.0,39.0,-100.00,ENE,71,0.0,0.0,96,0.00,,,0.00,0.000000,,2013-03-05 11:11:00,
2013-03-05 06:32:00,41.0,40.0,-100.00,SE,140,0.0,0.0,97,0.00,,,0.00,0.000000,,2013-03-05 11:32:00,
2013-03-05 06:42:00,41.0,40.0,-100.00,SE,140,0.0,0.0,97,0.00,,,0.00,0.000000,,2013-03-05 11:42:00,
2013-03-05 06:52:00,41.0,40.0,-100.00,SE,140,0.0,0.0,97,0.00,,,0.00,0.000000,,2013-03-05 11:52:00,
2013-03-05 07:02:00,41.0,40.0,-100.00,SE,140,0.0,0.0,97,0.00,,,0.00,0.000000,,2013-03-05 12:02:00,
2013-03-05 07:12:00,41.0,40.0,-100.00,SE,140,0.0,0.0,97,0.00,,,0.00,0.000000,,2013-03-05 12:12:00,
2013-03-05 07:32:00,44.0,43.0,-100.00,NE,41,0.0,2.0,96,0.00,,,0.00,11.000000,,2013-03-05 12:32:00,
2013-03-05 07:42:00,44.0,43.0,-100.00,NE,41,0.0,2.0,96,0.00,,,0.00,11.000000,,2013-03-05 12:42:00,
2013-03-05 07:53:00,44.0,43.0,-100.00,NE,41,0.0,2.0,96,0.00,,,0.00,11.000000,,2013-03-05 12:53:00,
2013-03-05 08:02:00,44.0,43.0,-100.00,NE,41,0.0,2.0,96,0.00,,,0.00,11.000000,,2013-03-05 13:02:00,
2013-03-05 08:12:00,44.0,43.0,-100.00,NE,41,0.0,2.0,96,0.00,,,0.00,11.000000,,2013-03-05 13:12:00,
2013-03-05 08:42:00,61.0,59.0,-100.00,SE,136,3.0,6.0,94,0.00,,,0.00,148.000000,,2013-03-05 13:42:00,
2013-03-05 08:52:00,61.0,59.0,-100.00,SE,136,3.0,6.0,94,0.00,,,0.00,148.000000,,2013-03-05 13:52:00,
2013-03-05 09:02:00,61.0,59.0,-100.00,SE,136,3.0,6.0,94,0.00,,,0.00,148.000000,,2013-03-05 14:02:00,
2013-03-05 09:11:00,61.0,59.0,-100.00,SE,136,3.0,6.0,94,0.00,,,0.00,148.000000,,2013-03-05 14:11:00,
2013-03-05 09:42:00,67.0,56.0,-100.00,SSE,147,5.0,9.0,67,0.00,,,0.00,313.000000,,2013-03-05 14:42:00,
2013-03-05 09:52:00,67.0,56.0,-100.00,SSE,147,5.0,9.0,67,0.00,,,0.00,313.000000,,2013-03-05 14:52:00,
2013-03-05 10:02:00,67.0,56.0,-100.00,SSE,147,5.0,9.0,67,0.00,,,0.00,313.000000,,2013-03-05 15:02:00,
2013-03-05 10:11:00,67.0,56.0,-100.00,SSE,147,5.0,9.0,67,0.00,,,0.00,313.000000,,2013-03-05 15:11:00,
2013-03-05 10:32:00,70.0,55.0,-100.00,SSE,157,6.0,10.0,58,0.00,,,0.00,475.000000,,2013-03-05 15:32:00,
2013-03-05 10:42:00,70.0,55.0,-100.00,SSE,157,6.0,10.0,58,0.00,,,0.00,475.000000,,2013-03-05 15:42:00,
2013-03-05 10:52:00,70.0,55.0,-100.00,SSE,157,6.0,10.0,58,0.00,,,0.00,475.000000,,2013-03-05 15:52:00,
2013-03-05 11:02:00,70.0,55.0,-100.00,SSE,157,6.0,10.0,58,0.00,,,0.00,475.000000,,2013-03-05 16:02:00,
2013-03-05 11:11:00,70.0,55.0,-100.00,SSE,157,6.0,10.0,58,0.00,,,0.00,475.000000,,2013-03-05 16:11:00,
2013-03-05 11:32:00,72.0,54.0,-100.00,SSE,158,5.0,11.0,54,0.00,,,0.00,601.000000,,2013-03-05 16:32:00,
2013-03-05 11:42:00,72.0,54.0,-100.00,SSE,158,5.0,11.0,54,0.00,,,0.00,601.000000,,2013-03-05 16:42:00,
2013-03-05 11:52:00,72.0,54.0,-100.00,SSE,158,5.0,11.0,54,0.00,,,0.00,601.000000,,2013-03-05 16:52:00,
2013-03-05 12:01:00,72.0,54.0,-100.00,SSE,158,5.0,11.0,54,0.00,,,0.00,601.000000,,2013-03-05 17:01:00,
2013-03-05 12:11:00,72.0,54.0,-100.00,SSE,158,5.0,11.0,54,0.00,,,0.00,601.000000,,2013-03-05 17:11:00,
2013-03-05 12:32:00,72.0,54.0,-100.00,South,174,5.0,12.0,54,0.00,,,0.00,683.000000,,2013-03-05 17:32:00,
2013-03-05 12:42:00,72.0,54.0,-100.00,South,174,5.0,12.0,54,0.00,,,0.00,683.000000,,2013-03-05 17:42:00,
2013-03-05 12:53:00,72.0,54.0,-100.00,South,174,5.0,12.0,54,0.00,,,0.00,683.000000,,2013-03-05 17:53:00,
2013-03-05 13:02:00,72.0,54.0,-100.00,South,174,5.0,12.0,54,0.00,,,0.00,683.000000,,2013-03-05 18:02:00,
2013-03-05 13:11:00,72.0,54.0,-100.00,South,174,5.0,12.0,54,0.00,,,0.00,683.000000,,2013-03-05 18:11:00,
2013-03-05 13:32:00,72.0,55.0,-100.00,South,174,8.0,12.0,56,0.00,,,0.00,712.000000,,2013-03-05 18:32:00,
2013-03-05 13:42:00,72.0,55.0,-100.00,South,174,8.0,12.0,56,0.00,,,0.00,712.000000,,2013-03-05 18:42:00,
2013-03-05 13:53:00,72.0,55.0,-100.00,South,174,8.0,12.0,56,0.00,,,0.00,712.000000,,2013-03-05 18:53:00,
2013-03-05 14:01:00,72.0,55.0,-100.00,South,174,8.0,12.0,56,0.00,,,0.00,712.000000,,2013-03-05 19:01:00,
2013-03-05 14:11:00,72.0,55.0,-100.00,South,174,8.0,12.0,56,0.00,,,0.00,712.000000,,2013-03-05 19:11:00,
2013-03-05 14:42:00,73.0,56.0,-100.00,SSW,194,7.0,12.0,56,0.00,,,0.00,681.000000,,2013-03-05 19:42:00,
2013-03-05 14:52:00,73.0,56.0,-100.00,SSW,194,7.0,12.0,56,0.00,,,0.00,681.000000,,2013-03-05 19:52:00,
2013-03-05 15:01:00,73.0,56.0,-100.00,SSW,194,7.0,12.0,56,0.00,,,0.00,681.000000,,2013-03-05 20:01:00,
2013-03-05 15:11:00,73.0,56.0,-100.00,SSW,194,7.0,12.0,56,0.00,,,0.00,681.000000,,2013-03-05 20:11:00,
2013-03-05 15:42:00,73.0,57.0,-100.00,SSW,200,6.0,12.0,58,0.00,,,0.00,593.000000,,2013-03-05 20:42:00,
2013-03-05 15:52:00,73.0,57.0,-100.00,SSW,200,6.0,12.0,58,0.00,,,0.00,593.000000,,2013-03-05 20:52:00,
2013-03-05 16:02:00,73.0,57.0,-100.00,SSW,200,6.0,12.0,58,0.00,,,0.00,593.000000,,2013-03-05 21:02:00,
2013-03-05 16:11:00,73.0,57.0,-100.00,SSW,200,6.0,12.0,58,0.00,,,0.00,593.000000,,2013-03-05 21:11:00,
2013-03-05 16:32:00,72.0,58.0,-100.00,SSW,211,5.0,11.0,61,0.00,,,0.00,458.000000,,2013-03-05 21:32:00,
2013-03-05 16:42:00,72.0,58.0,-100.00,SSW,211,5.0,11.0,61,0.00,,,0.00,458.000000,,2013-03-05 21:42:00,
2013-03-05 16:52:00,72.0,58.0,-100.00,SSW,211,5.0,11.0,61,0.00,,,0.00,458.000000,,2013-03-05 21:52:00,
2013-03-05 17:01:00,72.0,58.0,-100.00,SSW,211,5.0,11.0,61,0.00,,,0.00,458.000000,,2013-03-05 22:01:00,
2013-03-05 17:11:00,72.0,58.0,-100.00,SSW,211,5.0,11.0,61,0.00,,,0.00,458.000000,,2013-03-05 22:11:00,
2013-03-05 17:32:00,71.0,59.0,-100.00,SW,221,5.0,10.0,65,0.00,,,0.00,289.000000,,2013-03-05 22:32:00,
2013-03-05 17:42:00,71.0,59.0,-100.00,SW,221,5.0,10.0,65,0.00,,,0.00,289.000000,,2013-03-05 22:42:00,
2013-03-05 17:52:00,71.0,59.0,-100.00,SW,221,5.0,10.0,65,0.00,,,0.00,289.000000,,2013-03-05 22:52:00,
2013-03-05 18:01:00,71.0,59.0,-100.00,SW,221,5.0,10.0,65,0.00,,,0.00,289.000000,,2013-03-05 23:01:00,
2013-03-05 18:11:00,71.0,59.0,-100.00,SW,221,5.0,10.0,65,0.00,,,0.00,289.000000,,2013-03-05 23:11:00,
2013-03-05 18:32:00,67.0,58.0,-100.00,West,261,3.0,8.0,74,0.00,,,0.00,101.000000,,2013-03-05 23:32:00,
2013-03-05 18:42:00,67.0,58.0,-100.00,West,261,3.0,8.0,74,0.00,,,0.00,101.000000,,2013-03-05 23:42:00,
2013-03-05 18:53:00,67.0,58.0,-100.00,West,261,3.0,8.0,74,0.00,,,0.00,101.000000,,2013-03-05 23:53:00,
2013-03-05 19:02:00,67.0,58.0,-100.00,West,261,3.0,8.0,74,0.00,,,0.00,101.000000,,2013-03-06 00:02:00,
2013-03-05 19:11:00,67.0,58.0,-100.00,West,261,3.0,8.0,74,0.00,,,0.00,101.000000,,2013-03-06 00:11:00,
2013-03-05 19:32:00,59.0,55.0,-100.00,SW,228,2.0,3.0,87,0.00,,,0.00,3.000000,,2013-03-06 00:32:00,
2013-03-05 19:42:00,59.0,55.0,-100.00,SW,228,2.0,3.0,87,0.00,,,0.00,3.000000,,2013-03-06 00:42:00,
2013-03-05 19:52:00,59.0,55.0,-100.00,SW,228,2.0,3.0,87,0.00,,,0.00,3.000000,,2013-03-06 00:52:00,
2013-03-05 20:02:00,59.0,55.0,-100.00,SW,228,2.0,3.0,87,0.00,,,0.00,3.000000,,2013-03-06 01:02:00,
2013-03-05 20:11:00,59.0,55.0,-100.00,SW,228,2.0,3.0,87,0.00,,,0.00,3.000000,,2013-03-06 01:11:00,
2013-03-05 20:42:00,56.0,54.0,-100.00,SW,227,1.0,3.0,94,0.00,,,0.00,0.000000,,2013-03-06 01:42:00,
2013-03-05 20:52:00,56.0,54.0,-100.00,SW,227,1.0,3.0,94,0.00,,,0.00,0.000000,,2013-03-06 01:52:00,
2013-03-05 21:01:00,56.0,54.0,-100.00,SW,227,1.0,3.0,94,0.00,,,0.00,0.000000,,2013-03-06 02:01:00,
2013-03-05 21:11:00,56.0,54.0,-100.00,SW,227,1.0,3.0,94,0.00,,,0.00,0.000000,,2013-03-06 02:11:00,
2013-03-05 21:32:00,61.0,59.0,-100.00,SW,217,4.0,6.0,93,0.00,,,0.00,0.000000,,2013-03-06 02:32:00,
2013-03-05 21:42:00,61.0,59.0,-100.00,SW,217,4.0,6.0,93,0.00,,,0.00,0.000000,,2013-03-06 02:42:00,
2013-03-05 21:52:00,61.0,59.0,-100.00,SW,217,4.0,6.0,93,0.00,,,0.00,0.000000,,2013-03-06 02:52:00,
2013-03-05 22:02:00,61.0,59.0,-100.00,SW,217,4.0,6.0,93,0.00,,,0.00,0.000000,,2013-03-06 03:02:00,
2013-03-05 22:11:00,61.0,59.0,-100.00,SW,217,4.0,6.0,93,0.00,,,0.00,0.000000,,2013-03-06 03:11:00,
2013-03-05 22:42:00,63.0,60.0,-100.00,SW,235,4.0,7.0,89,0.00,,,0.00,0.000000,,2013-03-06 03:42:00,
2013-03-05 22:53:00,63.0,60.0,-100.00,SW,235,4.0,7.0,89,0.00,,,0.00,0.000000,,2013-03-06 03:53:00,
2013-03-05 23:02:00,63.0,60.0,-100.00,SW,235,4.0,7.0,89,0.00,,,0.00,0.000000,,2013-03-06 04:02:00,
2013-03-05 23:11:00,63.0,60.0,-100.00,SW,235,4.0,7.0,89,0.00,,,0.00,0.000000,,2013-03-06 04:11:00,
2013-03-05 23:32:00,64.0,60.0,-100.00,SW,227,5.0,9.0,87,0.00,,,0.00,0.000000,,2013-03-06 04:32:00,
2013-03-05 23:42:00,64.0,60.0,-100.00,SW,227,5.0,9.0,87,0.00,,,0.00,0.000000,,2013-03-06 04:42:00,
2013-03-05 23:52:00,64.0,60.0,-100.00,SW,227,5.0,9.0,87,0.00,,,0.00,0.000000,,2013-03-06 04:52:00,